createdAt,value
2022-11-04T00:01:37.941Z,0.95
2022-11-04T00:04:05.198Z,0.85
2022-11-04T00:06:32.288Z,0.82
2022-11-04T00:08:59.763Z,0.60
2022-11-04T00:11:46.609Z,0.30
2022-11-04T00:14:14.381Z,0.55
2022-11-04T00:17:00.498Z,0.20
2022-11-04T00:19:27.698Z,0.40
2022-11-04T00:22:13.864Z,0.50
2022-11-04T00:24:43.542Z,0.32
2022-11-04T00:27:34.156Z,0.80
2022-11-04T00:30:01.944Z,0.50
2022-11-04T00:32:47.641Z,0.30
2022-11-04T00:35:14.669Z,0.40
2022-11-04T00:37:43.237Z,0.38
2022-11-04T00:40:12.616Z,0.50
2022-11-04T00:42:40.109Z,0.60
2022-11-04T00:45:07.626Z,0.40
2022-11-04T00:47:34.642Z,0.60
2022-11-04T00:50:01.633Z,0.70
2022-11-04T00:52:28.600Z,0.90
2022-11-04T00:54:55.593Z,0.70
2022-11-04T00:57:22.674Z,0.63
2022-11-04T00:59:49.730Z,0.70
2022-11-04T01:02:17.094Z,0.73
2022-11-04T01:04:44.173Z,0.90
2022-11-04T01:07:11.924Z,0.77
2022-11-04T01:09:39.025Z,0.93
2022-11-04T01:12:06.244Z,0.90
2022-11-04T01:14:36.693Z,0.63
2022-11-04T01:17:03.722Z,0.60
2022-11-04T01:19:31.095Z,0.82
2022-11-04T01:21:58.923Z,0.90
2022-11-04T01:24:26.222Z,0.50
2022-11-04T01:26:53.201Z,0.70
2022-11-04T01:29:20.294Z,0.75
2022-11-04T01:31:47.362Z,0.55
2022-11-04T01:34:14.455Z,0.75
2022-11-04T01:36:41.491Z,1.05
2022-11-04T01:39:09.577Z,0.90
2022-11-04T01:41:36.629Z,0.90
2022-11-04T01:44:25.013Z,0.82
2022-11-04T01:46:54.019Z,0.55
2022-11-04T01:49:28.939Z,0.60
2022-11-04T01:52:05.410Z,0.73
2022-11-04T01:54:34.744Z,0.70
2022-11-04T01:57:05.279Z,1.00
2022-11-04T01:59:38.904Z,0.95
2022-11-04T02:02:06.873Z,0.70
2022-11-04T02:04:34.697Z,0.70
2022-11-04T02:07:06.965Z,0.90
2022-11-04T02:09:35.990Z,0.80
2022-11-04T02:12:22.411Z,0.70
2022-11-04T02:14:50.467Z,0.80
2022-11-04T02:17:20.228Z,0.70
2022-11-04T02:20:14.929Z,0.73
2022-11-04T02:22:41.836Z,0.77
2022-11-04T02:25:45.764Z,1.00
2022-11-04T02:28:15.393Z,0.65
2022-11-04T02:30:50.054Z,0.88
2022-11-04T02:33:19.755Z,0.60
2022-11-04T02:36:01.291Z,0.75
2022-11-04T02:38:31.072Z,0.80
2022-11-04T02:41:08.869Z,0.77
2022-11-04T02:44:16.194Z,2.13
2022-11-04T02:47:04.579Z,0.90
2022-11-04T02:49:38.402Z,0.93
2022-11-04T02:52:09.687Z,1.10
2022-11-04T02:54:50.121Z,0.88
2022-11-04T02:57:22.672Z,0.93
2022-11-04T03:02:27.928Z,0.85
2022-11-04T03:04:57.934Z,0.40
2022-11-04T03:07:31.384Z,0.30
2022-11-04T03:10:07.945Z,0.52
2022-11-04T03:12:42.504Z,0.82
2022-11-04T03:15:17.627Z,0.60
2022-11-04T03:18:04.932Z,0.77
2022-11-04T03:20:32.108Z,1.40
2022-11-04T03:23:00.323Z,1.08
2022-11-04T03:25:34.649Z,1.27
2022-11-04T03:28:13.569Z,1.30
2022-11-04T03:30:45.903Z,1.10
2022-11-04T03:33:24.656Z,1.33
2022-11-04T03:39:43.284Z,1.50
2022-11-04T03:42:21.666Z,1.60
2022-11-04T03:44:54.184Z,1.40
2022-11-04T03:47:24.415Z,1.00
2022-11-04T03:49:59.019Z,0.93
2022-11-04T03:52:27.165Z,1.05
2022-11-04T03:54:54.167Z,0.80
2022-11-04T03:57:50.415Z,0.68
2022-11-04T04:00:20.419Z,1.45
2022-11-04T04:03:06.506Z,0.50
2022-11-04T04:06:03.638Z,0.40
2022-11-04T04:08:46.811Z,0.85
2022-11-04T04:11:30.804Z,0.45
2022-11-04T04:14:33.962Z,0.45
2022-11-04T04:17:05.116Z,0.75
2022-11-04T04:19:33.866Z,0.40
2022-11-04T04:22:06.955Z,0.40
2022-11-04T04:24:56.986Z,0.77
2022-11-04T04:27:42.480Z,0.43
2022-11-04T04:30:15.273Z,0.40
2022-11-04T04:32:56.343Z,0.68
2022-11-04T04:35:43.802Z,0.80
2022-11-04T04:38:43.671Z,0.60
2022-11-04T04:41:40.224Z,0.77
2022-11-04T04:44:41.550Z,0.60
2022-11-04T04:47:11.121Z,0.80
2022-11-04T04:49:54.974Z,0.47
2022-11-04T04:52:23.408Z,0.85
2022-11-04T04:54:50.369Z,0.75
2022-11-04T04:57:17.479Z,0.52
2022-11-04T04:59:44.494Z,0.63
2022-11-04T05:02:11.619Z,0.82
2022-11-04T05:04:38.661Z,0.57
2022-11-04T05:07:07.707Z,0.80
2022-11-04T05:09:34.759Z,0.95
2022-11-04T05:12:01.890Z,0.60
2022-11-04T05:14:29.302Z,0.70
2022-11-04T05:16:56.359Z,1.02
2022-11-04T05:19:23.342Z,0.90
2022-11-04T05:21:50.307Z,0.80
2022-11-04T05:24:17.357Z,0.95
2022-11-04T05:26:44.387Z,0.60
2022-11-04T05:29:12.440Z,1.23
2022-11-04T05:31:39.806Z,1.50
2022-11-04T05:34:06.830Z,1.30
2022-11-04T05:36:33.864Z,1.10
2022-11-04T05:39:00.995Z,0.95
2022-11-04T05:41:28.049Z,0.70
2022-11-04T05:44:00.287Z,1.83
2022-11-04T05:46:28.304Z,0.98
2022-11-04T05:48:55.940Z,0.90
2022-11-04T05:51:26.610Z,0.60
2022-11-04T05:53:53.644Z,1.00
2022-11-04T05:56:20.958Z,1.35
2022-11-04T05:58:48.128Z,1.08
2022-11-04T06:01:36.101Z,1.17
2022-11-04T06:04:05.185Z,1.35
2022-11-04T06:06:35.294Z,1.33
2022-11-04T06:09:03.612Z,1.40
2022-11-04T06:11:32.160Z,1.98
2022-11-04T06:13:59.578Z,2.58
2022-11-04T06:16:27.011Z,2.15
2022-11-04T06:18:54.417Z,1.83
2022-11-04T06:21:25.935Z,1.73
2022-11-04T06:23:56.714Z,2.35
2022-11-04T06:26:27.842Z,1.75
2022-11-04T06:28:55.563Z,1.77
2022-11-04T06:31:22.972Z,1.83
2022-11-04T06:33:50.034Z,2.38
2022-11-04T06:36:17.390Z,2.60
2022-11-04T06:38:44.730Z,2.78
2022-11-04T06:41:15.232Z,2.25
2022-11-04T06:43:42.359Z,2.17
2022-11-04T06:46:35.449Z,1.33
2022-11-04T06:49:03.501Z,3.78
2022-11-04T06:51:30.866Z,1.92
2022-11-04T06:53:57.853Z,1.92
2022-11-04T06:56:25.275Z,2.20
2022-11-04T06:58:54.231Z,1.70
2022-11-04T07:01:23.412Z,2.00
2022-11-04T07:03:52.325Z,2.03
2022-11-04T07:06:21.100Z,2.75
2022-11-04T07:08:49.380Z,2.47
2022-11-04T07:11:19.603Z,2.40
2022-11-04T07:13:47.177Z,1.80
2022-11-04T07:16:14.299Z,2.47
2022-11-04T07:18:41.647Z,2.80
2022-11-04T07:21:10.344Z,1.60
2022-11-04T07:23:37.747Z,2.22
2022-11-04T07:26:07.373Z,2.15
2022-11-04T07:28:35.140Z,1.95
2022-11-04T07:31:04.433Z,3.15
2022-11-04T07:33:33.684Z,2.70
2022-11-04T07:36:05.309Z,3.03
2022-11-04T07:38:32.570Z,2.33
2022-11-04T07:41:00.376Z,2.28
2022-11-04T07:43:27.721Z,4.32
2022-11-04T07:46:12.003Z,2.92
2022-11-04T07:48:39.127Z,6.32
2022-11-04T07:51:08.659Z,8.15
2022-11-04T07:53:35.659Z,7.35
2022-11-04T07:56:05.358Z,8.98
2022-11-04T07:58:32.766Z,4.55
2022-11-04T08:01:01.562Z,4.05
2022-11-04T08:03:28.745Z,3.30
2022-11-04T08:05:59.811Z,3.80
2022-11-04T08:08:28.149Z,2.95
2022-11-04T08:10:57.733Z,3.22
2022-11-04T08:13:28.484Z,2.65
2022-11-04T08:15:57.874Z,2.30
2022-11-04T08:18:24.879Z,2.17
2022-11-04T08:20:52.655Z,2.25
2022-11-04T08:23:20.297Z,2.58
2022-11-04T08:25:47.290Z,1.98
2022-11-04T08:28:17.583Z,5.68
2022-11-04T08:30:59.275Z,4.18
2022-11-04T08:33:27.506Z,3.38
2022-11-04T08:35:55.868Z,2.90
2022-11-04T08:38:22.849Z,2.53
2022-11-04T08:40:49.979Z,2.85
2022-11-04T08:43:17.394Z,1.98
2022-11-04T08:45:46.615Z,2.25
2022-11-04T08:48:16.481Z,1.67
2022-11-04T08:50:43.780Z,2.63
2022-11-04T08:53:11.152Z,3.10
2022-11-04T08:55:38.283Z,3.25
2022-11-04T08:58:05.449Z,2.55
2022-11-04T09:00:33.057Z,3.55
2022-11-04T09:03:00.486Z,3.22
2022-11-04T09:05:28.727Z,2.72
2022-11-04T09:07:55.828Z,1.63
2022-11-04T09:10:23.203Z,1.65
2022-11-04T09:12:50.242Z,1.77
2022-11-04T09:15:17.352Z,2.08
2022-11-04T09:17:44.478Z,2.08
2022-11-04T09:20:12.170Z,2.20
2022-11-04T09:22:44.593Z,3.22
2022-11-04T09:25:12.713Z,1.77
2022-11-04T09:27:39.721Z,1.52
2022-11-04T09:30:07.146Z,1.63
2022-11-04T09:32:34.153Z,1.75
2022-11-04T09:35:01.280Z,1.80
2022-11-04T09:37:28.315Z,2.25
2022-11-04T09:39:55.481Z,2.20
2022-11-04T09:42:28.854Z,1.85
2022-11-04T09:47:52.700Z,3.33
2022-11-04T09:50:31.944Z,2.13
2022-11-04T09:53:06.656Z,1.23
2022-11-04T09:55:50.427Z,1.20
2022-11-04T09:58:17.672Z,1.25
2022-11-04T10:00:59.068Z,1.77
2022-11-04T10:03:31.797Z,1.10
2022-11-04T10:08:56.211Z,1.17
2022-11-04T10:11:25.935Z,0.98
2022-11-04T10:14:14.568Z,1.35
2022-11-04T10:17:03.229Z,1.80
2022-11-04T10:20:01.465Z,1.73
2022-11-04T10:22:35.213Z,2.08
2022-11-04T10:25:14.004Z,1.50
2022-11-04T10:27:44.840Z,1.40
2022-11-04T10:30:18.504Z,2.53
2022-11-04T10:33:10.443Z,1.30
2022-11-04T10:35:57.284Z,2.50
2022-11-04T10:38:36.387Z,3.13
2022-11-04T10:41:17.884Z,1.27
2022-11-04T10:43:44.992Z,1.58
2022-11-04T10:46:38.771Z,1.08
2022-11-04T10:49:54.723Z,0.93
2022-11-04T10:52:28.349Z,0.88
2022-11-04T10:54:55.384Z,2.75
2022-11-04T10:57:25.838Z,0.93
2022-11-04T10:59:54.468Z,0.75
2022-11-04T11:02:36.729Z,0.70
2022-11-04T11:05:20.611Z,0.80
2022-11-04T11:07:50.804Z,0.50
2022-11-04T11:10:20.554Z,0.80
2022-11-04T11:13:02.010Z,0.90
2022-11-04T11:15:40.038Z,0.47
2022-11-04T11:18:21.094Z,0.63
2022-11-04T11:20:51.260Z,1.50
2022-11-04T11:23:39.890Z,0.60
2022-11-04T11:26:10.246Z,0.70
2022-11-04T11:28:40.458Z,0.50
2022-11-04T11:31:16.507Z,0.50
2022-11-04T11:33:50.186Z,1.02
2022-11-04T11:36:19.308Z,0.63
2022-11-04T11:39:06.642Z,0.95
2022-11-04T11:41:52.899Z,0.93
2022-11-04T11:44:38.701Z,0.80
2022-11-04T11:47:15.391Z,1.27
2022-11-04T11:49:42.482Z,0.98
2022-11-04T11:52:31.782Z,1.05
2022-11-04T11:55:07.493Z,0.80
2022-11-04T11:57:44.749Z,0.82
2022-11-04T12:03:11.945Z,1.00
2022-11-04T12:06:18.944Z,1.52
2022-11-04T12:11:48.553Z,0.68
2022-11-04T12:14:24.065Z,1.55
2022-11-04T12:17:24.846Z,0.98
2022-11-04T12:20:08.843Z,2.28
2022-11-04T12:22:58.364Z,2.30
2022-11-04T12:25:32.628Z,2.47
2022-11-04T12:28:05.932Z,1.45
2022-11-04T12:30:46.697Z,1.60
2022-11-04T12:33:23.860Z,1.10
2022-11-04T12:36:20.683Z,0.68
2022-11-04T12:39:14.431Z,0.90
2022-11-04T12:42:19.060Z,1.63
2022-11-04T12:44:44.424Z,1.17
2022-11-04T12:47:23.633Z,1.27
2022-11-04T12:50:06.193Z,0.50
2022-11-04T12:52:39.278Z,0.50
2022-11-04T12:55:17.300Z,0.50
2022-11-04T12:57:50.000Z,0.60
2022-11-04T13:03:14.938Z,1.02
2022-11-04T13:05:58.252Z,0.90
2022-11-04T13:08:46.272Z,0.70
2022-11-04T13:11:33.237Z,1.08
2022-11-04T13:14:16.221Z,0.80
2022-11-04T13:16:46.919Z,0.77
2022-11-04T13:19:35.269Z,0.60
2022-11-04T13:22:13.736Z,1.10
2022-11-04T13:24:48.964Z,0.88
2022-11-04T13:27:23.564Z,1.30
2022-11-04T13:29:56.253Z,0.80
2022-11-04T13:35:04.655Z,0.65
2022-11-04T13:38:13.101Z,0.82
2022-11-04T13:41:21.847Z,1.70
2022-11-04T13:43:55.240Z,1.13
2022-11-04T13:46:29.978Z,0.73
2022-11-04T13:49:02.249Z,1.35
2022-11-04T13:51:43.031Z,1.27
2022-11-04T13:54:33.499Z,1.33
2022-11-04T13:57:21.840Z,1.25
2022-11-04T14:00:13.380Z,1.23
2022-11-04T14:02:44.868Z,1.30
2022-11-04T14:05:24.080Z,1.73
2022-11-04T14:08:02.851Z,1.83
2022-11-04T14:10:47.820Z,1.60
2022-11-04T14:13:32.885Z,1.10
2022-11-04T14:16:28.907Z,1.70
2022-11-04T14:18:56.052Z,1.27
2022-11-04T14:21:27.497Z,1.05
2022-11-04T14:24:01.799Z,1.20
2022-11-04T14:26:42.362Z,1.83
2022-11-04T14:29:17.922Z,1.52
2022-11-04T14:31:49.984Z,2.05
2022-11-04T14:34:31.009Z,1.58
2022-11-04T14:37:00.767Z,1.73
2022-11-04T14:39:34.215Z,1.95
2022-11-04T14:42:03.663Z,3.78
2022-11-04T14:44:49.352Z,1.52
2022-11-04T14:47:21.395Z,1.42
2022-11-04T14:49:49.717Z,2.58
2022-11-04T14:52:25.895Z,2.28
2022-11-04T14:54:58.217Z,2.95
2022-11-04T14:57:25.280Z,2.55
2022-11-04T14:59:53.764Z,1.83
2022-11-04T15:02:24.797Z,1.88
2022-11-04T15:05:02.202Z,1.40
2022-11-04T15:07:35.839Z,1.80
2022-11-04T15:10:26.950Z,1.40
2022-11-04T15:13:00.255Z,1.40
2022-11-04T15:15:37.619Z,1.33
2022-11-04T15:18:25.521Z,1.27
2022-11-04T15:20:58.141Z,1.80
2022-11-04T15:23:33.403Z,1.90
2022-11-04T15:26:02.100Z,2.40
2022-11-04T15:28:34.647Z,2.55
2022-11-04T15:31:20.701Z,2.15
2022-11-04T15:33:51.630Z,1.80
2022-11-04T15:36:25.217Z,3.53
2022-11-04T15:38:57.929Z,2.92
2022-11-04T15:44:18.139Z,1.42
2022-11-04T15:46:53.346Z,1.23
2022-11-04T15:49:24.277Z,1.10
2022-11-04T15:51:54.102Z,1.55
2022-11-04T15:54:36.451Z,1.88
2022-11-04T15:57:16.672Z,1.90
2022-11-04T15:59:57.972Z,2.63
2022-11-04T16:02:29.358Z,2.63
2022-11-04T16:05:11.611Z,2.55
2022-11-04T16:07:50.213Z,2.83
2022-11-04T16:10:36.930Z,2.83
2022-11-04T16:13:16.121Z,3.65
2022-11-04T16:15:48.043Z,2.80
2022-11-04T16:18:36.464Z,3.60
2022-11-04T16:21:13.250Z,3.08
2022-11-04T16:23:46.881Z,3.60
2022-11-04T16:26:14.354Z,3.72
2022-11-04T16:28:42.726Z,3.65
2022-11-04T16:31:25.931Z,4.40
2022-11-04T16:33:53.167Z,3.58
2022-11-04T16:36:30.924Z,3.22
2022-11-04T16:39:04.404Z,3.50
2022-11-04T16:41:35.924Z,3.88
2022-11-04T16:44:05.091Z,5.10
2022-11-04T16:46:33.722Z,9.20
2022-11-04T16:49:00.728Z,7.28
2022-11-04T16:51:27.700Z,5.57
2022-11-04T16:53:54.732Z,5.65
2022-11-04T16:56:26.456Z,6.20
2022-11-04T16:58:53.535Z,5.43
2022-11-04T17:01:21.329Z,6.32
2022-11-04T17:03:49.275Z,15.85
2022-11-04T17:06:16.987Z,6.40
2022-11-04T17:08:44.250Z,5.30
2022-11-04T17:11:12.433Z,4.60
2022-11-04T17:13:39.464Z,5.15
2022-11-04T17:16:10.296Z,4.75
2022-11-04T17:18:37.396Z,4.38
2022-11-04T17:21:07.546Z,7.15
2022-11-04T17:23:35.299Z,5.20
2022-11-04T17:26:02.307Z,4.18
2022-11-04T17:28:31.463Z,3.58
2022-11-04T17:30:58.688Z,4.15
2022-11-04T17:33:26.786Z,3.03
2022-11-04T17:35:54.280Z,2.58
2022-11-04T17:38:21.530Z,3.60
2022-11-04T17:41:07.131Z,4.93
2022-11-04T17:43:52.882Z,5.03
2022-11-04T17:46:35.407Z,4.10
2022-11-04T17:49:07.153Z,3.13
2022-11-04T17:51:35.340Z,3.00
2022-11-04T17:54:02.604Z,4.68
2022-11-04T17:56:30.931Z,3.13
2022-11-04T17:59:01.630Z,3.53
2022-11-04T18:01:28.815Z,3.78
2022-11-04T18:03:56.002Z,5.20
2022-11-04T18:06:23.641Z,3.03
2022-11-04T18:08:54.883Z,2.97
2022-11-04T18:11:42.728Z,3.40
2022-11-04T18:14:16.222Z,3.20
2022-11-04T18:16:45.641Z,3.10
2022-11-04T18:19:12.727Z,3.90
2022-11-04T18:21:40.338Z,3.03
2022-11-04T18:24:07.577Z,4.47
2022-11-04T18:26:34.878Z,5.00
2022-11-04T18:29:02.404Z,3.45
2022-11-04T18:31:34.397Z,3.75
2022-11-04T18:34:04.958Z,5.82
2022-11-04T18:36:33.730Z,5.97
2022-11-04T18:39:01.284Z,5.15
2022-11-04T18:41:28.346Z,6.88
2022-11-04T18:43:55.412Z,6.22
2022-11-04T18:46:22.580Z,5.88
2022-11-04T18:48:50.807Z,5.60
2022-11-04T18:51:21.945Z,6.95
2022-11-04T18:53:50.405Z,9.75
2022-11-04T18:56:20.529Z,6.07
2022-11-04T18:58:47.699Z,7.68
2022-11-04T19:01:20.064Z,8.05
2022-11-04T19:03:47.783Z,8.88
2022-11-04T19:06:19.020Z,14.77
2022-11-04T19:08:47.216Z,8.98
2022-11-04T19:11:22.575Z,11.85
2022-11-04T19:13:51.824Z,7.80
2022-11-04T19:16:19.253Z,8.23
2022-11-04T19:18:49.236Z,6.70
2022-11-04T19:21:19.468Z,6.32
2022-11-04T19:23:46.903Z,7.63
2022-11-04T19:26:17.358Z,8.18
2022-11-04T19:28:48.657Z,6.78
2022-11-04T19:31:19.285Z,7.45
2022-11-04T19:33:47.218Z,6.88
2022-11-04T19:36:16.608Z,7.00
2022-11-04T19:38:47.201Z,8.10
2022-11-04T19:41:34.954Z,7.18
2022-11-04T19:44:04.190Z,7.38
2022-11-04T19:46:32.526Z,7.15
2022-11-04T19:49:00.459Z,8.30
2022-11-04T19:51:31.959Z,9.25
2022-11-04T19:53:59.805Z,8.50
2022-11-04T19:56:26.886Z,8.90
2022-11-04T19:58:54.286Z,8.93
2022-11-04T20:01:21.608Z,8.52
2022-11-04T20:03:48.811Z,8.25
2022-11-04T20:06:16.536Z,8.48
2022-11-04T20:08:45.542Z,8.82
2022-11-04T20:11:13.802Z,9.60
2022-11-04T20:13:49.991Z,10.40
2022-11-04T20:16:27.521Z,10.43
2022-11-04T20:18:56.877Z,9.77
2022-11-04T20:21:27.687Z,10.18
2022-11-04T20:23:59.387Z,10.48
2022-11-04T20:26:28.251Z,10.60
2022-11-04T20:28:58.228Z,9.85
2022-11-04T20:31:27.555Z,7.32
2022-11-04T20:33:58.475Z,5.97
2022-11-04T20:36:27.212Z,6.10
2022-11-04T20:39:11.763Z,7.72
2022-11-04T20:41:38.753Z,8.85
2022-11-04T20:44:05.775Z,7.68
2022-11-04T20:46:34.655Z,7.63
2022-11-04T20:49:03.107Z,8.18
2022-11-04T20:51:33.029Z,8.75
2022-11-04T20:54:01.813Z,7.75
2022-11-04T20:56:37.128Z,8.18
2022-11-04T20:59:05.965Z,7.80
2022-11-04T21:01:35.859Z,7.97
2022-11-04T21:04:11.981Z,7.97
2022-11-04T21:06:39.552Z,8.07
2022-11-04T21:09:12.715Z,7.22
2022-11-04T21:11:40.584Z,7.05
2022-11-04T21:14:11.270Z,9.27
2022-11-04T21:16:38.755Z,8.23
2022-11-04T21:19:06.692Z,8.40
2022-11-04T21:21:34.031Z,8.20
2022-11-04T21:24:03.460Z,8.43
2022-11-04T21:26:33.949Z,8.10
2022-11-04T21:29:04.083Z,7.85
2022-11-04T21:31:32.781Z,8.77
2022-11-04T21:34:00.672Z,11.05
2022-11-04T21:36:27.929Z,8.48
2022-11-04T21:38:55.366Z,9.52
2022-11-04T21:41:25.800Z,11.55
2022-11-04T21:44:00.561Z,8.93
2022-11-04T21:46:30.354Z,9.10
2022-11-04T21:48:57.498Z,9.45
2022-11-04T21:51:28.808Z,11.90
2022-11-04T21:53:59.749Z,9.05
2022-11-04T21:56:29.236Z,11.07
2022-11-04T21:58:56.762Z,10.68
2022-11-04T22:01:26.636Z,10.65
2022-11-04T22:03:56.469Z,10.13
2022-11-04T22:06:24.970Z,10.35
2022-11-04T22:08:54.900Z,10.80
2022-11-04T22:11:27.835Z,9.77
2022-11-04T22:14:04.293Z,8.73
2022-11-04T22:16:33.657Z,9.38
2022-11-04T22:19:03.417Z,9.30
2022-11-04T22:21:31.558Z,9.15
2022-11-04T22:23:59.580Z,10.05
2022-11-04T22:26:29.247Z,10.52
2022-11-04T22:28:57.319Z,9.52
2022-11-04T22:31:28.231Z,11.38
2022-11-04T22:33:56.768Z,11.75
2022-11-04T22:36:23.905Z,11.18
2022-11-04T22:38:51.015Z,11.93
2022-11-04T22:41:21.519Z,11.70
2022-11-04T22:43:48.721Z,10.85
2022-11-04T22:46:21.698Z,9.40
2022-11-04T22:48:48.725Z,8.70
2022-11-04T22:51:16.612Z,9.73
2022-11-04T22:53:44.610Z,8.68
2022-11-04T22:56:14.310Z,9.60
2022-11-04T22:58:41.593Z,9.75
2022-11-04T23:01:11.461Z,9.43
2022-11-04T23:03:39.390Z,9.88
2022-11-04T23:06:07.671Z,9.88
2022-11-04T23:08:36.171Z,10.68
2022-11-04T23:11:28.525Z,9.45
2022-11-04T23:14:20.818Z,8.77
2022-11-04T23:17:09.148Z,9.27
2022-11-04T23:19:37.773Z,10.40
2022-11-04T23:22:23.954Z,10.18
2022-11-04T23:25:06.194Z,9.30
2022-11-04T23:27:53.700Z,9.77
2022-11-04T23:30:21.151Z,9.63
2022-11-04T23:32:51.954Z,10.75
2022-11-04T23:35:38.998Z,10.68
2022-11-04T23:38:05.987Z,10.20
2022-11-04T23:40:33.479Z,9.93
2022-11-04T23:43:00.536Z,9.82
2022-11-04T23:45:46.318Z,10.70
2022-11-04T23:48:32.157Z,10.43
2022-11-04T23:51:19.937Z,10.50
2022-11-04T23:54:06.306Z,11.15
2022-11-04T23:56:52.192Z,9.90
2022-11-04T23:59:37.915Z,9.60
